Terminal Aerodrome Forecast
Issued by NWS Charleston, WV

Home | Current Version | Previous Version | Text Only | Print | Product List | Glossary On
Versions: 1 2 3 4 5 6 7 8 9 10 11 12 13 14 15 16 17 18 19 20 21 22 23 24 25 26
000
FTUS41 KRLX 062046 AAA
TAFPKB
TAF AMD
KPKB 062046Z 0621/0718 VRB03KT P6SM SHRA VCTS BKN035CB
      TEMPO 0621/0622 VRB10G20KT 3SM TSRA OVC025CB
     FM062300 00000KT P6SM BKN035
     FM070200 00000KT 6SM BR BKN040
     FM070500 VRB03KT 3SM BR SCT080
     FM070800 VRB03KT 1SM BR SCT001 SCT070
     FM071300 VRB03KT 3SM BR SCT001 SCT070
     FM071400 21007KT P6SM SCT040=

USA.gov is the U.S. government's official web portal to all federal, state and local government web resources and services.